createdAt,value
2019-05-17T00:01:07.391Z,100868.78
2019-05-17T00:06:11.778Z,100865.30
2019-05-17T00:11:16.847Z,100872.92
2019-05-17T00:16:21.259Z,100867.51
2019-05-17T00:21:27.547Z,100856.12
2019-05-17T00:26:31.522Z,100854.65
2019-05-17T00:31:36.995Z,100847.86
2019-05-17T00:36:41.371Z,100837.47
2019-05-17T00:41:47.130Z,100830.89
2019-05-17T00:46:51.439Z,100820.31
2019-05-17T00:51:56.729Z,100824.43
2019-05-17T00:57:01.097Z,100830.58
2019-05-17T01:02:06.958Z,100828.27
2019-05-17T01:07:11.486Z,100818.63
2019-05-17T01:12:16.435Z,100819.23
2019-05-17T01:17:20.766Z,100820.31
2019-05-17T01:22:26.257Z,100812.02
2019-05-17T01:27:30.531Z,100813.84
2019-05-17T01:32:37.194Z,100820.42
2019-05-17T01:37:40.720Z,100820.14
2019-05-17T01:42:46.595Z,100822.62
2019-05-17T01:47:51.085Z,100820.33
2019-05-17T01:52:56.646Z,100824.36
2019-05-17T01:58:00.981Z,100819.23
2019-05-17T02:03:07.038Z,100804.34
2019-05-17T02:08:11.314Z,100814.30
2019-05-17T02:13:16.435Z,100808.77
2019-05-17T02:18:20.864Z,100799.66
2019-05-17T02:23:27.091Z,100793.70
2019-05-17T02:28:32.169Z,100802.19
2019-05-17T02:33:36.671Z,100802.19
2019-05-17T02:38:43.598Z,100813.07
2019-05-17T02:43:46.899Z,100803.11
2019-05-17T02:48:53.863Z,100809.59
2019-05-17T02:53:57.142Z,100806.53
2019-05-17T02:59:03.632Z,100802.52
2019-05-17T03:04:07.550Z,100805.17
2019-05-17T03:09:12.547Z,100798.79
2019-05-17T03:14:16.900Z,100802.19
2019-05-17T03:19:23.570Z,100796.04
2019-05-17T03:24:27.091Z,100800.05
2019-05-17T03:29:33.522Z,100806.79
2019-05-17T03:34:37.899Z,100802.80
2019-05-17T03:39:42.751Z,100806.19
2019-05-17T03:44:47.084Z,100801.28
2019-05-17T03:49:53.091Z,100797.59
2019-05-17T03:54:57.557Z,100788.86
2019-05-17T04:00:03.790Z,100793.98
2019-05-17T04:05:08.052Z,100797.80
2019-05-17T04:10:15.167Z,100789.30
2019-05-17T04:15:18.659Z,100801.50
2019-05-17T04:20:22.886Z,100793.19
2019-05-17T04:25:27.118Z,100786.81
2019-05-17T04:30:32.620Z,100785.70
2019-05-17T04:35:37.363Z,100775.84
2019-05-17T04:40:43.129Z,100775.73
2019-05-17T04:45:47.628Z,100772.13
2019-05-17T04:50:53.685Z,100770.58
2019-05-17T04:55:57.824Z,100772.83
2019-05-17T05:01:04.152Z,100773.61
2019-05-17T05:06:08.040Z,100766.72
2019-05-17T05:11:12.843Z,100772.62
2019-05-17T05:16:17.316Z,100764.51
2019-05-17T05:21:23.063Z,100761.00
2019-05-17T05:26:27.636Z,100766.68
2019-05-17T05:31:32.267Z,100768.72
2019-05-17T05:36:36.590Z,100766.63
2019-05-17T05:41:42.703Z,100763.91
2019-05-17T05:46:46.853Z,100755.58
2019-05-17T05:51:52.308Z,100756.05
2019-05-17T05:56:56.786Z,100748.17
2019-05-17T06:02:01.788Z,100750.66
2019-05-17T06:07:06.141Z,100750.99
2019-05-17T06:12:23.434Z,100745.86
2019-05-17T06:17:16.354Z,100751.82
2019-05-17T06:22:22.406Z,100748.72
2019-05-17T06:27:26.791Z,100738.81
2019-05-17T06:32:31.660Z,100747.27
2019-05-17T06:37:36.041Z,100743.70
2019-05-17T06:42:44.110Z,100746.16
2019-05-17T06:47:46.266Z,100746.00
2019-05-17T06:52:53.114Z,100742.67
2019-05-17T06:57:56.476Z,100738.66
2019-05-17T07:03:00.886Z,100738.22
2019-05-17T07:08:05.312Z,100745.69
2019-05-17T07:13:10.655Z,100735.41
2019-05-17T07:18:15.189Z,100743.07
2019-05-17T07:23:19.859Z,100733.72
2019-05-17T07:28:24.110Z,100739.72
2019-05-17T07:33:30.478Z,100733.06
2019-05-17T07:38:34.322Z,100725.78
2019-05-17T07:43:40.515Z,100729.23
2019-05-17T07:48:44.529Z,100719.19
2019-05-17T07:53:49.494Z,100707.50
2019-05-17T07:58:53.890Z,100703.70
2019-05-17T08:04:00.401Z,100692.95
2019-05-17T08:09:05.681Z,100683.95
2019-05-17T08:14:10.553Z,100675.41
2019-05-17T08:19:14.944Z,100661.69
2019-05-17T08:24:19.670Z,100660.17
2019-05-17T08:29:24.018Z,100663.33
2019-05-17T08:34:29.288Z,100640.90
2019-05-17T08:39:33.724Z,100628.27
2019-05-17T08:44:39.398Z,100614.88
2019-05-17T08:49:43.812Z,100608.48
2019-05-17T08:54:49.563Z,100617.59
2019-05-17T08:59:53.971Z,100619.87
2019-05-17T09:05:00.279Z,100613.31
2019-05-17T09:10:04.552Z,100623.43
2019-05-17T09:15:09.997Z,100627.56
2019-05-17T09:20:14.672Z,100627.19
2019-05-17T09:25:21.783Z,100623.78
2019-05-17T09:30:25.767Z,100622.34
2019-05-17T09:35:30.206Z,100619.33
2019-05-17T09:40:34.516Z,100619.21
2019-05-17T09:45:40.452Z,100597.28
2019-05-17T09:50:45.076Z,100599.44
2019-05-17T09:55:49.787Z,100594.05
2019-05-17T10:00:54.401Z,100593.80
2019-05-17T10:06:00.006Z,100587.30
2019-05-17T10:11:08.758Z,100580.49
2019-05-17T10:16:10.570Z,100572.14
2019-05-17T10:21:14.829Z,100573.18
2019-05-17T10:26:19.835Z,100573.58
2019-05-17T10:31:24.225Z,100567.50
2019-05-17T10:36:29.363Z,100569.63
2019-05-17T10:41:33.731Z,100559.41
2019-05-17T10:46:40.478Z,100550.75
2019-05-17T10:51:44.124Z,100579.87
2019-05-17T10:56:50.220Z,100579.87
2019-05-17T11:01:54.363Z,100574.34
2019-05-17T11:06:59.584Z,100582.95
2019-05-17T11:12:04.054Z,100567.41
2019-05-17T11:17:08.248Z,100575.05
2019-05-17T11:22:12.613Z,100565.56
2019-05-17T11:27:16.845Z,100576.33
2019-05-17T11:32:21.081Z,100565.08
2019-05-17T11:37:25.320Z,100572.98
2019-05-17T11:42:29.991Z,100565.02
2019-05-17T11:47:34.253Z,100565.02
2019-05-17T11:52:38.506Z,100570.57
2019-05-17T11:57:42.758Z,100554.02
2019-05-17T12:02:47.003Z,100551.63
2019-05-17T12:07:51.270Z,100556.03
2019-05-17T12:12:55.500Z,100555.08
2019-05-17T12:17:59.730Z,100554.47
2019-05-17T12:23:03.998Z,100538.84
2019-05-17T12:28:09.145Z,100511.20
2019-05-17T12:33:13.370Z,100524.95
2019-05-17T12:38:17.630Z,100523.48
2019-05-17T12:43:21.893Z,100518.85
2019-05-17T12:48:26.135Z,100512.31
2019-05-17T12:53:30.446Z,100519.95
2019-05-17T12:58:34.780Z,100519.67
2019-05-17T13:03:39.000Z,100519.38
2019-05-17T13:08:43.253Z,100517.71
2019-05-17T13:13:47.512Z,100519.87
2019-05-17T13:18:51.772Z,100516.71
2019-05-17T13:23:56.002Z,100508.52
2019-05-17T13:29:00.247Z,100503.02
2019-05-17T13:34:04.612Z,100495.88
2019-05-17T13:39:08.982Z,100489.41
2019-05-17T13:44:13.213Z,100485.78
2019-05-17T13:49:17.451Z,100480.61
2019-05-17T13:54:21.702Z,100484.73
2019-05-17T13:59:25.921Z,100476.16
2019-05-17T14:04:30.162Z,100478.70
2019-05-17T14:09:34.435Z,100475.52
2019-05-17T14:14:38.625Z,100473.41
2019-05-17T14:19:42.871Z,100470.95
2019-05-17T14:24:47.094Z,100468.80
2019-05-17T14:29:51.339Z,100461.16
2019-05-17T14:34:55.598Z,100454.51
2019-05-17T14:39:59.835Z,100453.02
2019-05-17T14:45:04.416Z,100446.27
2019-05-17T14:50:09.669Z,100445.91
2019-05-17T14:55:13.915Z,100437.47
2019-05-17T15:00:18.395Z,100433.13
2019-05-17T15:05:23.642Z,100432.28
2019-05-17T15:10:27.917Z,100428.41
2019-05-17T15:15:32.161Z,100423.84
2019-05-17T15:20:36.424Z,100419.13
2019-05-17T15:25:40.696Z,100416.35
2019-05-17T15:30:45.036Z,100414.72
2019-05-17T15:35:49.345Z,100417.84
2019-05-17T15:40:53.592Z,100407.80
2019-05-17T15:45:57.907Z,100409.13
2019-05-17T15:51:02.177Z,100400.50
2019-05-17T15:56:07.734Z,100400.87
2019-05-17T16:01:12.003Z,100393.59
2019-05-17T16:06:16.386Z,100386.39
2019-05-17T16:11:20.669Z,100375.10
2019-05-17T16:16:25.730Z,100377.11
2019-05-17T16:21:29.955Z,100372.84
2019-05-17T16:26:34.196Z,100372.70
2019-05-17T16:31:38.447Z,100373.11
2019-05-17T16:36:42.703Z,100378.69
2019-05-17T16:41:46.955Z,100377.45
2019-05-17T16:46:51.187Z,100378.84
2019-05-17T16:51:55.500Z,100369.88
2019-05-17T16:56:59.757Z,100369.91
2019-05-17T17:02:04.100Z,100377.28
2019-05-17T17:07:08.378Z,100382.51
2019-05-17T17:12:12.659Z,100382.20
2019-05-17T17:17:16.909Z,100383.17
2019-05-17T17:22:21.275Z,100382.84
2019-05-17T17:27:25.517Z,100374.78
2019-05-17T17:32:29.773Z,100375.11
2019-05-17T17:37:34.023Z,100367.88
2019-05-17T17:42:38.516Z,100372.09
2019-05-17T17:47:42.872Z,100372.64
2019-05-17T17:52:50.300Z,100376.11
2019-05-17T17:57:54.725Z,100380.47
2019-05-17T18:02:58.930Z,100382.72
2019-05-17T18:08:03.229Z,100373.63
2019-05-17T18:13:07.553Z,100383.11
2019-05-17T18:18:11.808Z,100381.20
2019-05-17T18:23:20.879Z,100383.19
2019-05-17T18:28:22.019Z,100390.53
2019-05-17T18:33:26.469Z,100394.51
2019-05-17T18:38:33.124Z,100406.73
2019-05-17T18:43:37.463Z,100411.08
2019-05-17T18:48:41.724Z,100404.28
2019-05-17T18:53:45.985Z,100404.28
2019-05-17T18:58:51.157Z,100414.73
2019-05-17T19:03:55.406Z,100419.73
2019-05-17T19:08:59.677Z,100423.87
2019-05-17T19:14:03.947Z,100430.39
2019-05-17T19:19:09.247Z,100436.91
2019-05-17T19:24:13.521Z,100443.44
2019-05-17T19:29:17.796Z,100444.55
2019-05-17T19:34:22.051Z,100442.39
2019-05-17T19:39:26.321Z,100442.13
2019-05-17T19:44:30.573Z,100448.09
2019-05-17T19:49:34.870Z,100444.56
2019-05-17T19:54:39.121Z,100453.77
2019-05-17T19:59:43.488Z,100457.55
2019-05-17T20:04:47.749Z,100449.70
2019-05-17T20:09:52.037Z,100453.46
2019-05-17T20:14:56.318Z,100457.23
2019-05-17T20:20:00.573Z,100450.22
2019-05-17T20:25:06.011Z,100448.33
2019-05-17T20:30:11.323Z,100445.34
2019-05-17T20:35:18.082Z,100450.48
2019-05-17T20:40:22.641Z,100442.66
2019-05-17T20:45:33.029Z,100445.08
2019-05-17T20:50:32.844Z,100433.16
2019-05-17T20:55:37.173Z,100432.63
2019-05-17T21:00:41.398Z,100427.75
2019-05-17T21:05:45.700Z,100434.22
2019-05-17T21:10:49.984Z,100426.39
2019-05-17T21:15:54.228Z,100428.80
2019-05-17T21:20:58.493Z,100429.05
2019-05-17T21:26:02.740Z,100430.94
2019-05-17T21:31:08.101Z,100419.56
2019-05-17T21:36:12.551Z,100417.15
2019-05-17T21:41:16.835Z,100418.49
2019-05-17T21:46:21.095Z,100418.19
2019-05-17T21:51:25.339Z,100417.31
2019-05-17T21:56:29.603Z,100416.47
2019-05-17T22:01:34.746Z,100416.17
2019-05-17T22:06:39.011Z,100409.94
2019-05-17T22:11:44.920Z,100412.37
2019-05-17T22:16:49.176Z,100403.98
2019-05-17T22:21:53.423Z,100409.87
2019-05-17T22:26:57.669Z,100402.02
2019-05-17T22:32:01.906Z,100401.95
2019-05-17T22:37:06.168Z,100394.65
2019-05-17T22:42:10.414Z,100400.01
2019-05-17T22:47:14.699Z,100397.02
2019-05-17T22:52:18.962Z,100392.09
2019-05-17T22:57:23.254Z,100405.54
2019-05-17T23:02:27.465Z,100399.30
2019-05-17T23:07:31.711Z,100399.81
2019-05-17T23:12:35.966Z,100397.12
2019-05-17T23:17:40.220Z,100401.65
2019-05-17T23:22:44.523Z,100401.88
2019-05-17T23:27:48.762Z,100402.85
2019-05-17T23:32:53.022Z,100398.78
2019-05-17T23:37:57.270Z,100405.45
2019-05-17T23:43:01.569Z,100402.73
2019-05-17T23:48:05.813Z,100398.14
2019-05-17T23:53:10.037Z,100401.57
2019-05-17T23:58:14.277Z,100400.41
